Time;durP1;ratioP1;P1;durP2;ratioP2;P2;SDS_P1;SDS_P2;PMS_P1;PMS_P2;Temp;Humidity;BMP_temperature;BMP_pressure;BME280_temperature;BME280_humidity;BME280_pressure;Samples;Min_cycle;Max_cycle;Signal;HPM_P1;HPM_P2
2024/04/09 00:00:32;;;;;;;2.15;1.05;;;19.60;88.00;19.70;99788.00;;;;5175487;26;94720;-67
2024/04/09 00:02:58;;;;;;;1.48;1.00;;;19.60;88.40;19.70;99782.00;;;;5174960;26;80764;-66
2024/04/09 00:05:31;;;;;;;2.55;1.52;;;19.70;88.80;19.70;99781.00;;;;5178655;26;81555;-66
2024/04/09 00:08:01;;;;;;;1.65;0.85;;;19.60;89.10;19.80;99782.00;;;;5179594;27;80507;-66
2024/04/09 00:10:31;;;;;;;2.00;1.10;;;19.70;89.80;19.80;99774.00;;;;5177116;26;80186;-66
2024/04/09 00:12:58;;;;;;;1.60;1.23;;;19.70;89.50;19.80;99771.00;;;;5174732;26;79617;-67
2024/04/09 00:15:24;;;;;;;1.33;1.05;;;19.70;89.70;19.80;99779.00;;;;5181881;26;79616;-67
2024/04/09 00:17:56;;;;;;;3.28;1.15;;;19.70;89.90;19.80;99770.00;;;;5183494;26;95921;-66
2024/04/09 00:20:24;;;;;;;2.33;1.15;;;19.70;90.00;19.80;99770.00;;;;5178986;26;78881;-67
2024/04/09 00:22:59;;;;;;;1.92;1.35;;;19.70;90.10;19.80;99770.00;;;;5176168;26;79637;-67
2024/04/09 00:25:25;;;;;;;1.92;1.25;;;19.70;90.20;19.80;99776.00;;;;5180409;27;79751;-66
2024/04/09 00:27:54;;;;;;;2.67;1.10;;;19.70;90.30;19.80;99767.00;;;;5178536;26;80394;-67
2024/04/09 00:30:21;;;;;;;2.42;1.10;;;19.70;90.40;19.90;99768.00;;;;5178759;26;79780;-66
2024/04/09 00:32:51;;;;;;;2.05;1.00;;;19.70;90.50;19.80;99760.00;;;;5178063;27;79782;-66
2024/04/09 00:35:22;;;;;;;2.55;0.93;;;19.70;90.60;19.90;99766.00;;;;5178325;26;79673;-66
2024/04/09 00:37:52;;;;;;;0.70;0.70;;;19.70;90.70;19.80;99763.00;;;;5179718;27;82707;-66
2024/04/09 00:40:22;;;;;;;2.95;1.60;;;19.70;90.70;19.80;99765.00;;;;5175158;26;84536;-65
2024/04/09 00:42:51;;;;;;;1.60;1.02;;;19.70;90.80;19.80;99758.00;;;;5180375;26;79717;-65
2024/04/09 00:45:18;;;;;;;1.25;1.10;;;19.70;90.80;19.80;99767.00;;;;5182183;26;78825;-65
2024/04/09 00:47:48;;;;;;;2.00;1.20;;;19.60;90.90;19.80;99766.00;;;;5179028;27;95588;-65
2024/04/09 00:50:15;;;;;;;2.22;1.17;;;19.70;90.90;19.70;99764.00;;;;5177174;26;80849;-65
2024/04/09 00:52:42;;;;;;;1.63;1.02;;;19.60;90.90;19.70;99763.00;;;;5181077;26;81291;-65
2024/04/09 00:55:10;;;;;;;1.65;1.52;;;19.60;91.00;19.70;99769.00;;;;5179283;26;95192;-65
2024/04/09 00:57:39;;;;;;;1.45;1.15;;;19.60;91.10;19.60;99761.00;;;;5177332;27;102097;-65
2024/04/09 01:00:12;;;;;;;2.15;1.13;;;19.50;91.10;19.60;99760.00;;;;5181820;26;80230;-65
2024/04/09 01:02:38;;;;;;;3.22;1.08;;;19.50;91.20;19.50;99759.00;;;;5180821;26;79685;-64
2024/04/09 01:05:05;;;;;;;1.52;0.95;;;19.40;91.30;19.40;99761.00;;;;5181922;26;85778;-65
2024/04/09 01:07:32;;;;;;;0.73;0.73;;;19.30;91.40;19.30;99764.00;;;;5177315;27;79474;-66
2024/04/09 01:09:58;;;;;;;3.50;1.75;;;19.30;91.50;19.30;99759.00;;;;5181128;26;80368;-65
2024/04/09 01:12:24;;;;;;;1.38;0.90;;;19.20;91.60;19.20;99766.00;;;;5183710;26;98734;-65
2024/04/09 01:14:51;;;;;;;9.20;1.40;;;19.10;91.70;19.10;99764.00;;;;5178229;27;79795;-65
2024/04/09 01:17:16;;;;;;;1.55;1.15;;;19.10;91.90;19.00;99767.00;;;;5178205;26;100314;-66
2024/04/09 01:19:42;;;;;;;2.42;1.50;;;19.00;92.00;19.00;99771.00;;;;5177847;27;112298;-66
2024/04/09 01:22:08;;;;;;;1.45;1.00;;;18.90;92.00;18.90;99764.00;;;;5175390;26;106613;-65
2024/04/09 01:24:34;;;;;;;1.27;1.17;;;18.80;92.50;18.80;99765.00;;;;5177905;26;80029;-65
2024/04/09 01:27:04;;;;;;;1.23;1.15;;;18.80;92.70;18.80;99767.00;;;;5177158;27;79850;-65
2024/04/09 01:29:30;;;;;;;1.27;1.10;;;18.70;92.50;18.70;99766.00;;;;5177848;26;80977;-66
2024/04/09 01:31:57;;;;;;;1.23;1.05;;;18.60;92.60;18.60;99769.00;;;;5182049;27;79527;-65
2024/04/09 01:34:22;;;;;;;1.85;1.25;;;18.60;92.80;18.60;99772.00;;;;5176324;26;78930;-66
2024/04/09 01:36:48;;;;;;;2.35;1.20;;;18.50;93.00;18.50;99767.00;;;;5179573;27;108295;-65
2024/04/09 01:39:14;;;;;;;1.20;1.10;;;18.50;93.10;18.50;99767.00;;;;5180472;27;83070;-65
2024/04/09 01:41:41;;;;;;;0.60;0.60;;;18.40;93.20;18.40;99763.00;;;;5182157;27;80353;-65
2024/04/09 01:44:08;;;;;;;2.00;1.20;;;18.40;93.30;18.40;99753.00;;;;5181047;27;79904;-65
2024/04/09 01:46:34;;;;;;;1.40;1.30;;;18.30;93.40;18.30;99760.00;;;;5182519;27;97817;-66
2024/04/09 01:49:00;;;;;;;1.38;1.27;;;18.40;93.60;18.30;99763.00;;;;5182265;27;82149;-65
2024/04/09 01:51:25;;;;;;;1.80;1.30;;;18.30;93.70;18.30;99761.00;;;;5183452;27;106326;-65
2024/04/09 01:53:52;;;;;;;1.42;1.00;;;18.20;93.80;18.30;99756.00;;;;5181708;27;105423;-65
2024/04/09 01:56:18;;;;;;;1.80;1.35;;;18.20;94.00;18.30;99767.00;;;;5182196;26;81480;-65
2024/04/09 01:58:46;;;;;;;1.00;0.88;;;18.20;94.10;18.20;99762.00;;;;5179433;27;80614;-65
2024/04/09 02:01:12;;;;;;;2.10;1.10;;;18.20;94.40;18.20;99768.00;;;;5176510;27;79460;-65
2024/04/09 02:03:40;;;;;;;1.60;1.27;;;18.20;94.40;18.20;99768.00;;;;5179746;27;86749;-66
2024/04/09 02:06:07;;;;;;;1.02;0.95;;;18.10;94.50;18.10;99768.00;;;;5176518;26;101995;-65
2024/04/09 02:08:34;;;;;;;2.08;1.25;;;18.10;94.60;18.10;99765.00;;;;5179314;27;81952;-65
2024/04/09 02:11:01;;;;;;;3.80;1.35;;;18.00;94.60;18.00;99772.00;;;;5177316;27;79827;-65
2024/04/09 02:13:29;;;;;;;4.40;1.23;;;18.00;94.70;17.90;99768.00;;;;5176037;27;79852;-65
2024/04/09 02:16:01;;;;;;;1.27;1.17;;;17.90;94.80;17.90;99768.00;;;;5181394;26;79899;-65
2024/04/09 02:18:26;;;;;;;1.10;0.90;;;17.80;95.00;17.80;99757.00;;;;5181299;27;91790;-66
2024/04/09 02:20:53;;;;;;;1.70;1.40;;;17.70;95.10;17.70;99756.00;;;;5178592;27;80790;-66
2024/04/09 02:23:19;;;;;;;2.10;1.38;;;17.70;95.20;17.70;99767.00;;;;5180530;27;78972;-66
2024/04/09 02:25:45;;;;;;;1.80;1.30;;;17.60;95.40;17.60;99754.00;;;;5178195;27;80813;-65
2024/04/09 02:28:11;;;;;;;2.30;0.90;;;17.60;95.50;17.60;99755.00;;;;5178200;26;80326;-66
2024/04/09 02:30:37;;;;;;;2.05;1.23;;;17.50;95.70;17.50;99755.00;;;;5182255;27;80882;-64
2024/04/09 02:33:03;;;;;;;1.50;1.08;;;17.50;95.80;17.50;99746.00;;;;5179500;26;79428;-65
2024/04/09 02:35:29;;;;;;;1.83;1.30;;;17.40;95.90;17.40;99754.00;;;;5178988;26;100278;-64
2024/04/09 02:37:55;;;;;;;1.23;1.13;;;17.40;96.10;17.30;99749.00;;;;5179942;27;102366;-65
2024/04/09 02:40:20;;;;;;;3.13;1.45;;;17.40;96.20;17.30;99744.00;;;;5176432;26;107363;-65
2024/04/09 02:42:47;;;;;;;1.48;1.38;;;17.40;96.40;17.20;99749.00;;;;5180784;26;105517;-64
2024/04/09 02:45:13;;;;;;;1.27;1.13;;;17.20;96.60;17.20;99738.00;;;;5178807;27;80510;-64
2024/04/09 02:47:39;;;;;;;2.58;1.70;;;17.20;96.70;17.10;99743.00;;;;5182288;26;80966;-64
2024/04/09 02:50:06;;;;;;;2.33;1.48;;;17.10;96.90;17.10;99742.00;;;;5182096;26;108018;-64
2024/04/09 02:52:32;;;;;;;1.52;1.23;;;17.10;97.10;17.10;99738.00;;;;5184497;26;79397;-66
2024/04/09 02:54:58;;;;;;;4.68;1.63;;;17.10;97.30;17.10;99739.00;;;;5182675;26;89496;-65
2024/04/09 02:57:24;;;;;;;1.05;0.88;;;17.00;97.40;17.10;99735.00;;;;5180337;26;83714;-65
2024/04/09 02:59:53;;;;;;;2.38;1.10;;;17.00;97.50;17.10;99739.00;;;;5183540;26;104103;-65
2024/04/09 03:02:19;;;;;;;1.92;1.10;;;17.00;97.70;17.00;99742.00;;;;5182370;26;107111;-65
2024/04/09 03:04:45;;;;;;;2.40;1.20;;;17.00;97.70;17.00;99730.00;;;;5179835;26;110220;-65
2024/04/09 03:07:11;;;;;;;1.98;1.38;;;17.00;97.80;16.90;99736.00;;;;5183127;26;80621;-65
2024/04/09 03:09:38;;;;;;;1.48;1.10;;;16.90;97.90;16.90;99728.00;;;;5185461;26;107083;-66
2024/04/09 03:12:05;;;;;;;3.03;1.10;;;16.90;98.00;16.90;99723.00;;;;5182074;26;80735;-65
2024/04/09 03:14:31;;;;;;;1.98;1.27;;;16.90;98.20;16.90;99721.00;;;;5186086;26;80553;-65
2024/04/09 03:16:56;;;;;;;1.60;1.35;;;16.80;98.30;16.90;99719.00;;;;5185006;27;98786;-64
2024/04/09 03:19:22;;;;;;;3.83;1.85;;;16.80;98.40;16.80;99714.00;;;;5177845;26;85990;-65
2024/04/09 03:21:48;;;;;;;2.85;1.63;;;16.80;98.50;16.80;99713.00;;;;5179825;26;80693;-65
2024/04/09 03:24:14;;;;;;;3.10;1.10;;;16.80;98.60;16.80;99711.00;;;;5180654;26;100152;-66
2024/04/09 03:26:40;;;;;;;2.25;1.42;;;16.80;98.60;16.80;99714.00;;;;5182336;26;81878;-65
2024/04/09 03:29:05;;;;;;;1.02;0.98;;;16.70;98.70;16.70;99710.00;;;;5180641;26;107924;-65
2024/04/09 03:31:31;;;;;;;2.80;1.50;;;16.70;98.80;16.70;99718.00;;;;5178257;26;106649;-65
2024/04/09 03:33:57;;;;;;;1.23;1.05;;;16.70;98.90;16.60;99720.00;;;;5179634;26;109292;-65
2024/04/09 03:36:23;;;;;;;1.67;1.10;;;16.60;99.00;16.60;99711.00;;;;5180075;26;110266;-65
2024/04/09 03:38:48;;;;;;;1.88;1.30;;;16.60;99.10;16.50;99716.00;;;;5179943;26;108291;-65
2024/04/09 03:41:14;;;;;;;1.30;1.20;;;16.50;99.30;16.50;99704.00;;;;5180801;26;107485;-65
2024/04/09 03:43:40;;;;;;;1.95;1.40;;;16.40;99.40;16.50;99700.00;;;;5178503;26;110184;-66
2024/04/09 03:46:08;;;;;;;2.67;1.35;;;16.40;99.60;16.40;99705.00;;;;5180849;26;108950;-65
2024/04/09 03:48:35;;;;;;;5.03;2.03;;;16.40;99.80;16.40;99692.00;;;;5183664;26;79529;-65
2024/04/09 03:51:01;;;;;;;1.67;1.30;;;16.40;99.90;16.40;99686.00;;;;5179896;26;82483;-65
2024/04/09 03:53:27;;;;;;;1.52;1.25;;;16.40;99.90;16.50;99693.00;;;;5179831;26;80045;-65
2024/04/09 03:55:57;;;;;;;1.92;1.58;;;16.40;99.90;16.40;99699.00;;;;5137626;26;106287;-66
2024/04/09 03:58:27;;;;;;;1.45;1.17;;;16.40;99.90;16.40;99685.00;;;;5180909;26;95109;-65
2024/04/09 04:00:58;;;;;;;1.70;1.55;;;16.40;99.90;16.40;99688.00;;;;5180627;27;87970;-65
2024/04/09 04:03:26;;;;;;;1.58;1.20;;;16.40;99.90;16.40;99681.00;;;;5181875;26;80841;-65
2024/04/09 04:05:56;;;;;;;5.40;1.85;;;16.30;99.90;16.30;99679.00;;;;5179285;27;80559;-66
2024/04/09 04:08:27;;;;;;;3.13;1.45;;;16.30;99.90;16.30;99678.00;;;;5181584;26;80475;-65
2024/04/09 04:10:58;;;;;;;2.45;1.85;;;16.20;99.90;16.20;99674.00;;;;5181375;26;84235;-65
2024/04/09 04:13:27;;;;;;;1.27;1.13;;;16.20;99.90;16.10;99671.00;;;;5182970;26;80097;-66
2024/04/09 04:16:05;;;;;;;6.82;2.08;;;16.10;99.90;16.10;99668.00;;;;5184515;26;81816;-65
2024/04/09 04:18:36;;;;;;;3.15;1.50;;;16.10;99.90;16.00;99664.00;;;;5168056;26;80257;-65
2024/04/09 04:21:08;;;;;;;2.03;1.85;;;16.00;99.90;16.00;99669.00;;;;5179505;26;79440;-65
2024/04/09 04:23:34;;;;;;;2.63;1.73;;;16.00;99.90;15.90;99672.00;;;;5171194;26;80371;-65
2024/04/09 04:26:03;;;;;;;1.58;1.48;;;15.90;99.90;15.90;99665.00;;;;5173982;26;109284;-66
2024/04/09 04:28:34;;;;;;;2.65;1.77;;;15.90;99.90;15.80;99664.00;;;;5180812;26;81280;-65
2024/04/09 04:31:00;;;;;;;1.42;1.33;;;15.90;99.90;15.80;99658.00;;;;5182651;26;79373;-65
2024/04/09 04:33:27;;;;;;;4.10;2.00;;;15.80;99.90;15.80;99663.00;;;;5209517;26;82034;-65
2024/04/09 04:35:53;;;;;;;2.00;1.60;;;15.80;99.90;15.70;99661.00;;;;5166639;26;81639;-65
2024/04/09 04:38:19;;;;;;;3.60;1.55;;;15.70;99.90;15.70;99659.00;;;;5171962;26;108652;-65
2024/04/09 04:40:45;;;;;;;1.50;1.40;;;15.70;99.90;15.70;99658.00;;;;5167685;26;107471;-65
2024/04/09 04:43:14;;;;;;;1.83;1.67;;;15.60;99.90;15.60;99658.00;;;;5175052;26;94138;-65
2024/04/09 04:45:40;;;;;;;10.35;1.63;;;15.60;99.90;15.60;99654.00;;;;5172009;26;110675;-65
2024/04/09 04:48:06;;;;;;;2.88;1.85;;;15.60;99.90;15.60;99652.00;;;;5173713;26;108269;-65
2024/04/09 04:50:32;;;;;;;1.63;1.50;;;15.60;99.90;15.60;99654.00;;;;5176015;26;105050;-65
2024/04/09 04:52:58;;;;;;;2.55;1.67;;;15.60;99.90;15.60;99658.00;;;;5174200;26;109263;-65
2024/04/09 04:55:23;;;;;;;7.03;2.22;;;15.60;99.90;15.60;99652.00;;;;5175799;26;110379;-65
2024/04/09 04:57:49;;;;;;;1.67;1.40;;;15.60;99.90;15.60;99656.00;;;;5176608;26;108431;-65
2024/04/09 05:00:15;;;;;;;1.38;1.27;;;15.50;99.90;15.60;99653.00;;;;5171451;26;105559;-65
2024/04/09 05:02:41;;;;;;;2.97;1.35;;;15.50;99.90;15.60;99660.00;;;;5172662;27;108830;-66
2024/04/09 05:05:08;;;;;;;2.92;1.73;;;15.60;99.90;15.60;99657.00;;;;5172902;26;110431;-65
2024/04/09 05:07:34;;;;;;;3.05;2.05;;;15.50;99.90;15.60;99660.00;;;;5173079;26;79884;-64
2024/04/09 05:10:12;;;;;;;3.20;1.63;;;15.50;99.90;15.60;99655.00;;;;5174153;26;106323;-65
2024/04/09 05:12:42;;;;;;;3.20;1.70;;;15.50;99.90;15.60;99654.00;;;;5176561;27;79884;-65
2024/04/09 05:15:09;;;;;;;1.98;1.73;;;15.60;99.90;15.70;99644.00;;;;5174040;26;80120;-64
2024/04/09 05:17:35;;;;;;;11.00;2.00;;;15.60;99.90;15.70;99658.00;;;;5175334;26;96434;-65
2024/04/09 05:20:09;;;;;;;2.38;2.15;;;15.60;99.90;15.70;99652.00;;;;5169941;26;95291;-65
2024/04/09 05:22:39;;;;;;;5.18;2.67;;;15.70;99.90;15.80;99661.00;;;;5170860;26;82051;-65
2024/04/09 05:25:06;;;;;;;2.30;2.10;;;15.70;99.90;15.80;99659.00;;;;5173218;26;81691;-65
2024/04/09 05:27:32;;;;;;;2.15;1.90;;;15.80;99.90;15.90;99667.00;;;;5174171;27;96190;-64
2024/04/09 05:29:59;;;;;;;2.65;2.03;;;15.80;99.90;15.90;99661.00;;;;5172944;27;94686;-65
2024/04/09 05:32:25;;;;;;;10.60;2.08;;;15.80;99.90;16.00;99664.00;;;;5172558;26;96248;-65
2024/04/09 05:34:51;;;;;;;2.85;1.70;;;15.90;99.90;16.00;99657.00;;;;5175162;26;80206;-64
2024/04/09 05:37:16;;;;;;;5.28;1.85;;;15.90;99.90;16.10;99673.00;;;;5167029;26;106983;-65
2024/04/09 05:39:45;;;;;;;3.28;1.95;;;16.00;99.90;16.20;99673.00;;;;5175718;27;106725;-65
2024/04/09 05:42:10;;;;;;;5.68;2.05;;;16.10;99.90;16.30;99672.00;;;;5174613;27;80701;-65
2024/04/09 05:44:36;;;;;;;4.22;1.60;;;16.00;99.90;16.30;99669.00;;;;5172978;26;108223;-64
2024/04/09 05:47:02;;;;;;;1.55;1.35;;;16.30;99.90;16.40;99665.00;;;;5174687;26;106463;-64
2024/04/09 05:49:28;;;;;;;3.08;1.98;;;16.30;99.90;16.50;99668.00;;;;5170156;26;108548;-64
2024/04/09 05:51:54;;;;;;;2.30;2.10;;;16.40;99.90;16.60;99670.00;;;;5175534;27;110144;-64
2024/04/09 05:54:19;;;;;;;6.22;2.08;;;16.50;99.90;16.60;99670.00;;;;5172893;27;80356;-66
2024/04/09 05:56:49;;;;;;;1.98;1.73;;;16.60;99.90;16.70;99660.00;;;;5171385;26;106570;-65
2024/04/09 05:59:15;;;;;;;2.35;1.58;;;16.60;99.90;16.90;99654.00;;;;5171462;27;106012;-66
2024/04/09 06:01:40;;;;;;;4.03;1.88;;;16.80;99.90;17.00;99651.00;;;;5170191;27;109097;-65
2024/04/09 06:04:06;;;;;;;2.58;1.98;;;16.80;99.90;17.10;99652.00;;;;5172556;26;109447;-66
2024/04/09 06:06:32;;;;;;;1.48;1.35;;;17.00;99.90;17.30;99648.00;;;;5177347;27;79560;-65
2024/04/09 06:08:58;;;;;;;1.40;1.30;;;17.10;99.90;17.50;99651.00;;;;5173705;27;106157;-66
2024/04/09 06:11:23;;;;;;;2.13;1.23;;;17.30;99.90;17.70;99657.00;;;;5171276;26;110181;-66
2024/04/09 06:13:53;;;;;;;2.60;1.60;;;17.50;99.90;17.90;99650.00;;;;5176998;26;108849;-66
2024/04/09 06:16:19;;;;;;;2.70;1.60;;;17.70;99.90;18.20;99648.00;;;;5171101;27;99339;-66
2024/04/09 06:18:46;;;;;;;1.38;0.75;;;17.90;99.90;18.40;99646.00;;;;5171005;26;79754;-66
2024/04/09 06:21:12;;;;;;;3.15;1.35;;;18.20;99.90;18.60;99646.00;;;;5171748;26;84663;-66
2024/04/09 06:23:37;;;;;;;2.03;1.30;;;18.40;99.90;18.80;99649.00;;;;5174788;26;86990;-65
2024/04/09 06:26:04;;;;;;;4.35;1.35;;;18.60;99.90;19.00;99655.00;;;;5174381;26;107043;-67
2024/04/09 06:28:30;;;;;;;3.03;1.77;;;18.70;99.90;19.20;99646.00;;;;5179231;26;79044;-65
2024/04/09 06:30:56;;;;;;;3.22;1.13;;;18.90;99.90;19.40;99647.00;;;;5175101;26;79820;-67
2024/04/09 06:33:22;;;;;;;1.10;1.00;;;19.10;99.90;19.60;99649.00;;;;5175648;26;107585;-67
2024/04/09 06:35:48;;;;;;;0.68;0.63;;;19.30;99.10;19.70;99648.00;;;;5177865;27;82914;-65
2024/04/09 06:38:16;;;;;;;3.28;1.10;;;19.50;98.80;19.90;99645.00;;;;5177366;26;79596;-66
2024/04/09 06:40:42;;;;;;;1.73;1.15;;;19.70;98.30;20.10;99653.00;;;;5174663;26;79906;-66
2024/04/09 06:43:08;;;;;;;1.35;0.88;;;19.90;97.80;20.20;99642.00;;;;5173184;26;110244;-66
2024/04/09 06:45:34;;;;;;;1.40;0.82;;;20.00;97.30;20.40;99645.00;;;;5177837;26;79957;-67
2024/04/09 06:47:59;;;;;;;2.60;1.30;;;20.20;97.10;20.50;99640.00;;;;5171163;26;105225;-66
2024/04/09 06:50:25;;;;;;;1.90;1.15;;;20.30;96.50;20.70;99638.00;;;;5174123;26;108234;-67
2024/04/09 06:52:51;;;;;;;0.75;0.75;;;20.50;96.50;20.90;99648.00;;;;5177198;26;108883;-67
2024/04/09 06:55:17;;;;;;;2.47;0.80;;;20.70;96.40;21.10;99632.00;;;;5175928;26;80103;-67
2024/04/09 06:57:45;;;;;;;2.97;1.27;;;20.90;96.10;21.30;99647.00;;;;5179469;26;79841;-67
2024/04/09 07:00:14;;;;;;;1.40;1.13;;;21.10;95.60;21.50;99644.00;;;;5171344;26;110167;-67
2024/04/09 07:02:40;;;;;;;3.85;1.55;;;21.30;95.20;21.80;99644.00;;;;5174153;26;79795;-66
2024/04/09 07:05:07;;;;;;;0.95;0.95;;;21.50;94.40;21.90;99651.00;;;;5173198;26;79345;-66
2024/04/09 07:07:34;;;;;;;1.10;1.00;;;21.60;93.40;22.10;99644.00;;;;5178075;26;79479;-65
2024/04/09 07:10:01;;;;;;;2.97;1.08;;;21.80;91.90;22.10;99640.00;;;;5178258;26;82153;-67
2024/04/09 07:12:27;;;;;;;1.38;0.85;;;21.90;91.40;22.20;99640.00;;;;5177774;26;80853;-67
2024/04/09 07:14:53;;;;;;;1.25;1.15;;;22.00;91.10;22.30;99636.00;;;;5178406;26;79895;-69
2024/04/09 07:17:19;;;;;;;1.27;0.88;;;22.10;90.70;22.40;99634.00;;;;5175747;26;94317;-65
2024/04/09 07:19:46;;;;;;;1.95;1.00;;;22.20;89.90;22.50;99623.00;;;;5172938;26;108911;-66
2024/04/09 07:22:12;;;;;;;1.10;1.00;;;22.30;89.60;22.60;99635.00;;;;5175037;26;80659;-66
2024/04/09 07:24:38;;;;;;;1.35;1.05;;;22.40;89.90;22.80;99633.00;;;;5175095;26;106539;-67
2024/04/09 07:27:04;;;;;;;0.80;0.80;;;22.60;90.00;23.10;99651.00;;;;5176313;26;80098;-66
2024/04/09 07:29:31;;;;;;;1.95;1.13;;;22.80;87.90;23.20;99640.00;;;;5173395;26;80845;-67
2024/04/09 07:31:57;;;;;;;1.33;0.77;;;23.00;87.30;23.40;99633.00;;;;5175772;26;80524;-67
2024/04/09 07:34:25;;;;;;;1.67;1.27;;;23.10;85.80;23.50;99640.00;;;;5172137;27;107227;-66
2024/04/09 07:36:50;;;;;;;0.75;0.70;;;23.30;85.20;23.70;99635.00;;;;5173911;26;106285;-66
2024/04/09 07:39:16;;;;;;;2.30;1.67;;;23.60;84.10;23.80;99628.00;;;;5175289;26;109180;-67
2024/04/09 07:41:42;;;;;;;1.15;1.10;;;23.50;82.60;23.90;99624.00;;;;5172432;26;109561;-67
2024/04/09 07:44:08;;;;;;;0.98;0.82;;;23.70;79.80;23.90;99627.00;;;;5173073;26;79533;-66
2024/04/09 07:46:33;;;;;;;1.08;0.80;;;23.70;79.40;23.90;99622.00;;;;5174888;26;79621;-67
2024/04/09 07:49:04;;;;;;;6.97;1.65;;;23.70;79.30;24.10;99628.00;;;;5173095;27;109952;-67
2024/04/09 07:51:30;;;;;;;0.95;0.63;;;23.80;78.30;24.10;99628.00;;;;5176527;26;79949;-67
2024/04/09 07:53:57;;;;;;;1.30;1.13;;;23.90;77.60;24.20;99618.00;;;;5173117;26;88358;-67
2024/04/09 07:56:24;;;;;;;2.47;1.02;;;24.00;77.60;24.40;99621.00;;;;5174593;26;80968;-68
2024/04/09 07:58:49;;;;;;;0.88;0.88;;;24.10;76.80;24.50;99618.00;;;;5172891;26;89248;-67
2024/04/09 08:01:15;;;;;;;2.53;1.52;;;24.20;75.20;24.60;99614.00;;;;5174580;26;105594;-67
2024/04/09 08:03:41;;;;;;;1.83;1.13;;;24.30;75.10;24.70;99620.00;;;;5174923;26;108545;-68
2024/04/09 08:06:07;;;;;;;0.80;0.80;;;24.40;73.60;24.70;99632.00;;;;5174219;26;90036;-67
2024/04/09 08:08:33;;;;;;;1.33;0.82;;;24.50;73.10;24.80;99625.00;;;;5177924;27;80678;-67
2024/04/09 08:10:59;;;;;;;1.05;0.68;;;24.50;72.90;24.90;99625.00;;;;5170520;26;101535;-67
2024/04/09 08:13:25;;;;;;;2.35;1.00;;;24.70;72.50;25.00;99633.00;;;;5173950;26;108003;-67
2024/04/09 08:15:52;;;;;;;0.85;0.57;;;24.80;71.40;25.10;99631.00;;;;5176715;27;79577;-67
2024/04/09 08:18:18;;;;;;;3.63;0.68;;;24.80;70.30;25.10;99627.00;;;;5170988;26;80347;-67
2024/04/09 08:20:44;;;;;;;1.08;0.90;;;24.90;70.80;25.20;99629.00;;;;5175242;26;80629;-67
2024/04/09 08:23:10;;;;;;;1.33;0.80;;;24.90;69.70;25.30;99632.00;;;;5176248;26;80067;-67
2024/04/09 08:25:37;;;;;;;1.17;0.95;;;25.10;67.70;25.40;99632.00;;;;5172026;26;105672;-66
2024/04/09 08:28:04;;;;;;;1.58;0.95;;;25.10;66.60;25.30;99626.00;;;;5174852;26;99227;-66
2024/04/09 08:30:29;;;;;;;1.10;0.60;;;25.10;66.00;25.30;99622.00;;;;5172094;26;80286;-67
2024/04/09 08:32:55;;;;;;;2.40;0.90;;;25.10;65.60;25.20;99631.00;;;;5173860;26;79823;-67
2024/04/09 08:35:21;;;;;;;3.55;1.00;;;25.00;65.80;25.20;99627.00;;;;5171868;26;107197;-67
2024/04/09 08:37:47;;;;;;;0.75;0.60;;;25.00;64.80;25.20;99631.00;;;;5173257;26;98471;-67
2024/04/09 08:40:17;;;;;;;1.90;0.82;;;25.00;65.30;25.20;99647.00;;;;5174603;26;81599;-67
2024/04/09 08:42:44;;;;;;;1.10;0.90;;;25.00;65.40;25.40;99648.00;;;;5175455;26;79568;-66
2024/04/09 08:45:16;;;;;;;1.45;0.90;;;25.10;65.70;25.70;99648.00;;;;5170701;26;80011;-66
2024/04/09 08:47:43;;;;;;;3.45;1.17;;;25.30;66.00;26.00;99650.00;;;;5170666;26;80779;-66
2024/04/09 08:50:10;;;;;;;1.40;0.93;;;25.60;65.80;26.40;99644.00;;;;5172436;26;80596;-67
2024/04/09 08:52:36;;;;;;;1.13;1.02;;;25.90;64.40;26.60;99635.00;;;;5175447;26;85366;-66
2024/04/09 08:55:05;;;;;;;2.35;1.42;;;26.20;63.10;26.70;99640.00;;;;5174428;27;107113;-67
2024/04/09 08:57:31;;;;;;;2.10;1.23;;;26.40;62.10;26.90;99623.00;;;;5177100;26;80921;-67
2024/04/09 08:59:57;;;;;;;1.08;0.90;;;26.50;61.80;27.10;99625.00;;;;5167255;26;109687;-68
2024/04/09 09:02:23;;;;;;;4.30;1.35;;;26.70;60.70;27.20;99622.00;;;;5172091;27;82506;-68
2024/04/09 09:04:50;;;;;;;3.60;0.95;;;26.80;59.60;27.40;99626.00;;;;5176330;26;93885;-69
2024/04/09 09:07:19;;;;;;;2.05;1.20;;;27.00;58.00;27.40;99620.00;;;;5173389;26;80449;-69
2024/04/09 09:09:46;;;;;;;3.47;0.80;;;27.10;58.20;27.40;99626.00;;;;5172811;26;81651;-68
2024/04/09 09:12:13;;;;;;;6.65;1.00;;;27.10;57.50;27.50;99616.00;;;;5173681;27;80762;-68
2024/04/09 09:14:55;;;;;;;1.45;1.13;;;27.20;56.20;27.40;99615.00;;;;5177703;26;80493;-68
2024/04/09 09:17:21;;;;;;;1.60;1.05;;;27.20;56.30;27.50;99625.00;;;;5175790;27;80253;-67
2024/04/09 09:20:14;;;;;;;2.50;0.90;;;27.20;55.60;27.40;99639.00;;;;5176038;26;79303;-68
2024/04/09 09:22:44;;;;;;;1.80;1.00;;;27.20;55.00;27.30;99639.00;;;;5175798;26;79347;-68
2024/04/09 09:25:25;;;;;;;1.00;0.90;;;27.00;54.70;27.20;99632.00;;;;5169555;26;80147;-68
2024/04/09 09:28:07;;;;;;;5.78;1.20;;;27.00;55.40;27.30;99635.00;;;;5166124;26;81176;-68
2024/04/09 09:30:42;;;;;;;1.30;1.08;;;27.00;55.60;27.40;99627.00;;;;5172229;27;81771;-68
2024/04/09 09:33:19;;;;;;;1.52;1.42;;;27.10;55.10;27.40;99638.00;;;;5174355;27;79481;-68
2024/04/09 09:35:50;;;;;;;0.70;0.70;;;27.10;54.80;27.50;99632.00;;;;5170413;27;79415;-69
2024/04/09 09:38:17;;;;;;;0.80;0.80;;;27.10;55.10;27.50;99632.00;;;;5145790;27;92806;-69
2024/04/09 09:40:48;;;;;;;2.15;1.08;;;27.20;54.70;27.60;99606.00;;;;5172379;27;79782;-69
2024/04/09 09:43:24;;;;;;;1.73;1.13;;;27.20;54.90;27.60;99604.00;;;;5167056;26;79855;-69
2024/04/09 09:45:50;;;;;;;2.45;1.17;;;27.30;55.10;27.80;99604.00;;;;5173088;27;78752;-68
2024/04/09 09:48:19;;;;;;;1.13;1.02;;;26.50;54.30;27.80;99613.00;;;;5171469;27;80321;-69
2024/04/09 09:50:45;;;;;;;0.70;0.70;;;27.40;54.20;27.90;99606.00;;;;5173519;27;80255;-69
2024/04/09 09:53:11;;;;;;;1.83;1.00;;;27.40;54.00;27.90;99605.00;;;;5171687;27;81399;-69
2024/04/09 09:55:40;;;;;;;2.63;0.90;;;27.50;54.20;28.10;99607.00;;;;5145553;27;79650;-68
2024/04/09 09:58:11;;;;;;;1.25;0.80;;;27.60;53.80;28.30;99595.00;;;;5171999;26;82436;-70
2024/04/09 10:00:38;;;;;;;1.08;0.80;;;27.90;53.70;28.40;99600.00;;;;5171682;26;98759;-68
2024/04/09 10:03:05;;;;;;;1.92;0.98;;;28.00;53.40;28.60;99600.00;;;;5169936;26;108540;-69
2024/04/09 10:05:36;;;;;;;1.30;0.70;;;28.10;52.80;28.80;99611.00;;;;5174339;27;79443;-68
2024/04/09 10:08:02;;;;;;;1.67;1.17;;;28.20;53.20;29.00;99603.00;;;;5176270;27;80734;-68
2024/04/09 10:10:30;;;;;;;1.17;1.08;;;28.50;52.30;29.30;99603.00;;;;5151815;27;83687;-68
2024/04/09 10:13:09;;;;;;;3.55;1.45;;;28.70;51.60;29.60;99612.00;;;;5175742;26;101035;-69
2024/04/09 10:15:43;;;;;;;1.55;0.75;;;28.90;51.20;29.80;99617.00;;;;5171448;26;79876;-69
2024/04/09 10:18:09;;;;;;;1.48;1.10;;;29.20;50.60;30.00;99614.00;;;;5171073;26;81644;-68
2024/04/09 10:20:37;;;;;;;1.67;1.10;;;29.40;49.90;30.10;99618.00;;;;5173850;26;112090;-69
2024/04/09 10:23:06;;;;;;;0.98;0.90;;;29.60;49.20;30.20;99621.00;;;;5172196;26;79831;-69
2024/04/09 10:25:37;;;;;;;2.97;1.27;;;29.70;48.90;30.20;99616.00;;;;5175374;26;79431;-69
2024/04/09 10:28:06;;;;;;;1.13;0.80;;;29.70;48.90;30.30;99621.00;;;;5178091;26;80665;-68
2024/04/09 10:30:34;;;;;;;3.58;1.20;;;29.80;48.50;30.50;99624.00;;;;5175832;26;81566;-68
2024/04/09 10:33:03;;;;;;;1.83;0.90;;;29.90;48.50;30.60;99617.00;;;;5175980;26;79630;-67
2024/04/09 10:35:29;;;;;;;1.40;1.00;;;30.10;47.90;30.60;99620.00;;;;5177695;26;79392;-68
2024/04/09 10:37:58;;;;;;;1.33;0.98;;;30.10;47.30;30.70;99618.00;;;;5175259;26;80420;-69
2024/04/09 10:40:25;;;;;;;2.28;0.85;;;30.20;47.60;30.80;99627.00;;;;5170518;26;79601;-68
2024/04/09 10:42:52;;;;;;;1.02;0.93;;;30.30;47.30;30.90;99627.00;;;;5174289;26;80350;-69
2024/04/09 10:45:18;;;;;;;3.70;1.00;;;30.40;47.70;31.00;99628.00;;;;5169691;26;80241;-69
2024/04/09 10:47:45;;;;;;;1.42;1.30;;;30.50;47.30;31.30;99629.00;;;;5172891;26;79789;-69
2024/04/09 10:50:14;;;;;;;2.35;1.23;;;30.70;46.70;31.50;99626.00;;;;5171974;26;80072;-69
2024/04/09 10:52:41;;;;;;;2.63;0.95;;;30.90;46.00;31.70;99616.00;;;;5174589;26;79633;-68